createdAt,value
2023-04-23T00:00:00.144Z,13
2023-04-23T00:05:00.335Z,13
2023-04-23T00:10:00.135Z,13
2023-04-23T00:15:00.124Z,13
2023-04-23T00:20:00.128Z,13
2023-04-23T00:25:00.166Z,12.9
2023-04-23T00:30:00.115Z,12.9
2023-04-23T00:35:00.163Z,12.8
2023-04-23T00:40:00.154Z,12.8
2023-04-23T00:45:00.143Z,12.7
2023-04-23T00:50:00.176Z,12.6
2023-04-23T00:55:00.135Z,12.6
2023-04-23T01:00:00.268Z,12.4
2023-04-23T01:05:00.153Z,12.4
2023-04-23T01:10:00.142Z,12.4
2023-04-23T01:15:00.158Z,12.3
2023-04-23T01:20:00.149Z,12.3
2023-04-23T01:25:00.154Z,12.3
2023-04-23T01:30:00.130Z,12.2
2023-04-23T01:35:00.205Z,12.1
2023-04-23T01:40:00.118Z,12.1
2023-04-23T01:45:00.103Z,12.2
2023-04-23T01:50:00.120Z,12.2
2023-04-23T01:55:00.142Z,12.1
2023-04-23T02:00:00.106Z,12
2023-04-23T02:05:00.149Z,11.9
2023-04-23T02:10:00.161Z,11.8
2023-04-23T02:15:00.119Z,11.7
2023-04-23T02:20:00.179Z,11.6
2023-04-23T02:25:00.159Z,11.5
2023-04-23T02:30:00.114Z,11.4
2023-04-23T02:35:00.128Z,11.4
2023-04-23T02:40:00.107Z,11.3
2023-04-23T02:45:00.117Z,11.2
2023-04-23T02:50:00.138Z,11.2
2023-04-23T02:55:00.143Z,11.1
2023-04-23T03:00:00.211Z,11.1
2023-04-23T03:05:00.185Z,11.1
2023-04-23T03:10:00.105Z,11.1
2023-04-23T03:15:00.187Z,11
2023-04-23T03:20:00.179Z,11
2023-04-23T03:25:00.122Z,11
2023-04-23T03:30:00.166Z,11
2023-04-23T03:35:00.177Z,11
2023-04-23T03:40:00.161Z,11.1
2023-04-23T03:45:00.130Z,11.1
2023-04-23T03:50:00.117Z,11.1
2023-04-23T03:55:00.146Z,11.1
2023-04-23T04:00:00.127Z,11.1
2023-04-23T04:05:00.338Z,11.1
2023-04-23T04:10:00.131Z,11.1
2023-04-23T04:15:00.151Z,11.1
2023-04-23T04:20:00.177Z,11.1
2023-04-23T04:25:00.181Z,11.1
2023-04-23T04:30:00.143Z,11.1
2023-04-23T04:35:00.142Z,11.1
2023-04-23T04:40:00.158Z,11
2023-04-23T04:45:00.142Z,11.1
2023-04-23T04:50:00.120Z,11
2023-04-23T04:55:00.118Z,11.1
2023-04-23T05:00:00.149Z,11
2023-04-23T05:05:00.133Z,11
2023-04-23T05:15:00.137Z,11.1
2023-04-23T05:20:00.127Z,11.2
2023-04-23T05:25:00.134Z,11.2
2023-04-23T05:30:00.127Z,11.2
2023-04-23T05:35:00.131Z,11.2
2023-04-23T05:40:00.222Z,11.1
2023-04-23T05:45:00.129Z,11.1
2023-04-23T05:50:00.120Z,11.1
2023-04-23T05:55:00.183Z,11.1
2023-04-23T06:00:00.134Z,11.1
2023-04-23T06:05:00.330Z,11.2
2023-04-23T06:10:00.156Z,11.1
2023-04-23T06:15:00.105Z,11.1
2023-04-23T06:20:00.122Z,11.1
2023-04-23T06:25:00.149Z,11
2023-04-23T06:30:00.110Z,11.6
2023-04-23T06:35:01.924Z,12.3
2023-04-23T06:40:00.144Z,12.5
2023-04-23T06:45:00.119Z,12.8
2023-04-23T06:50:00.106Z,12.6
2023-04-23T06:55:00.097Z,12.6
2023-04-23T07:00:00.142Z,12.4
2023-04-23T07:05:00.147Z,12.3
2023-04-23T07:10:00.185Z,12.1
2023-04-23T07:15:00.201Z,12.2
2023-04-23T07:20:00.150Z,12.4
2023-04-23T07:25:00.208Z,12.5
2023-04-23T07:30:00.139Z,12.6
2023-04-23T07:35:00.125Z,12.5
2023-04-23T07:40:00.132Z,12.8
2023-04-23T07:45:00.142Z,13.3
2023-04-23T07:50:00.194Z,13.4
2023-04-23T07:55:00.126Z,13.4
2023-04-23T08:00:00.213Z,13.5
2023-04-23T08:05:00.413Z,13.8
2023-04-23T08:10:00.159Z,14.1
2023-04-23T08:15:00.183Z,13.8
2023-04-23T08:20:00.133Z,14
2023-04-23T08:25:00.193Z,13.5
2023-04-23T08:30:00.123Z,14.2
2023-04-23T08:35:00.171Z,14.1
2023-04-23T08:40:00.174Z,13.7
2023-04-23T08:45:00.129Z,13.8
2023-04-23T08:50:00.125Z,13.9
2023-04-23T08:55:00.141Z,13.7
2023-04-23T09:00:00.125Z,13.6
2023-04-23T09:05:00.137Z,13.8
2023-04-23T09:10:00.186Z,14.2
2023-04-23T09:15:00.136Z,15.5
2023-04-23T09:20:00.135Z,14.7
2023-04-23T09:25:00.153Z,14.4
2023-04-23T09:30:00.133Z,14.6
2023-04-23T09:35:00.136Z,14.5
2023-04-23T09:40:00.154Z,14.5
2023-04-23T09:45:00.131Z,14.6
2023-04-23T09:50:00.188Z,14.8
2023-04-23T09:55:00.160Z,15.2
2023-04-23T10:00:07.298Z,15.9
2023-04-23T10:05:10.432Z,15.5
2023-04-23T10:10:00.153Z,15.3
2023-04-23T10:15:00.152Z,15.3
2023-04-23T10:20:00.173Z,16.2
2023-04-23T10:25:00.132Z,16.6
2023-04-23T10:30:00.193Z,16.5
2023-04-23T10:35:00.126Z,16.3
2023-04-23T10:40:00.142Z,16
2023-04-23T10:45:06.986Z,15.8
2023-04-23T10:50:00.135Z,15.9
2023-04-23T10:55:00.496Z,15.9
2023-04-23T11:00:00.167Z,16
2023-04-23T11:05:00.224Z,16.1
2023-04-23T11:10:00.112Z,16
2023-04-23T11:15:00.265Z,16.2
2023-04-23T11:20:00.158Z,16.1
2023-04-23T11:25:00.201Z,16.1
2023-04-23T11:30:00.360Z,16.4
2023-04-23T11:35:00.206Z,16.4
2023-04-23T11:40:00.122Z,16
2023-04-23T11:45:00.151Z,16.3
2023-04-23T11:50:00.147Z,16.9
2023-04-23T11:55:00.109Z,17.2
2023-04-23T12:00:00.118Z,17.8
2023-04-23T12:05:00.185Z,16.9
2023-04-23T12:10:00.156Z,16.6
2023-04-23T12:15:00.147Z,16.9
2023-04-23T12:20:00.177Z,16.6
2023-04-23T12:25:00.125Z,17
2023-04-23T12:30:00.124Z,17.1
2023-04-23T12:35:00.155Z,17.1
2023-04-23T12:40:00.108Z,17.2
2023-04-23T12:45:00.158Z,17.1
2023-04-23T12:50:00.113Z,17.1
2023-04-23T12:55:00.148Z,17
2023-04-23T13:00:00.138Z,17.4
2023-04-23T13:05:00.154Z,17.9
2023-04-23T13:10:00.107Z,17.6
2023-04-23T13:15:00.163Z,17.9
2023-04-23T13:20:00.161Z,17.1
2023-04-23T13:25:00.121Z,17.2
2023-04-23T13:30:00.122Z,17.5
2023-04-23T13:35:00.186Z,17.5
2023-04-23T13:40:00.142Z,17.2
2023-04-23T13:45:00.131Z,17.8
2023-04-23T13:50:00.142Z,17.8
2023-04-23T13:55:00.143Z,17.3
2023-04-23T14:00:00.169Z,17.1
2023-04-23T14:05:00.110Z,17.3
2023-04-23T14:10:00.114Z,17.5
2023-04-23T14:15:00.131Z,18.3
2023-04-23T14:20:00.136Z,18.1
2023-04-23T14:25:00.114Z,18.5
2023-04-23T14:30:00.144Z,17.9
2023-04-23T14:35:00.152Z,17.9
2023-04-23T14:40:00.106Z,17.8
2023-04-23T14:45:00.168Z,18
2023-04-23T14:50:00.210Z,18.3
2023-04-23T14:55:00.117Z,18
2023-04-23T15:00:00.169Z,17.8
2023-04-23T15:05:00.197Z,17.8
2023-04-23T15:10:00.136Z,17.8
2023-04-23T15:15:00.232Z,17.9
2023-04-23T15:20:00.140Z,18.2
2023-04-23T15:25:00.137Z,18.2
2023-04-23T15:30:00.163Z,18
2023-04-23T15:35:00.139Z,18
2023-04-23T15:40:00.165Z,17.9
2023-04-23T15:45:00.123Z,18
2023-04-23T15:50:00.183Z,18
2023-04-23T15:55:00.127Z,17.7
2023-04-23T16:00:00.313Z,17.7
2023-04-23T16:05:00.232Z,17.6
2023-04-23T16:10:00.148Z,17.8
2023-04-23T16:15:00.161Z,17.9
2023-04-23T16:20:00.134Z,17.9
2023-04-23T16:25:00.150Z,17.8
2023-04-23T16:30:00.144Z,17.7
2023-04-23T16:35:00.145Z,17.4
2023-04-23T16:40:00.104Z,17.2
2023-04-23T16:45:00.107Z,17.2
2023-04-23T16:50:00.237Z,17.2
2023-04-23T16:55:00.124Z,17.2
2023-04-23T17:00:00.162Z,17.1
2023-04-23T17:05:00.145Z,17
2023-04-23T17:10:00.126Z,17
2023-04-23T17:15:00.147Z,17.1
2023-04-23T17:20:00.169Z,17.1
2023-04-23T17:25:00.132Z,17.1
2023-04-23T17:30:00.214Z,17
2023-04-23T17:35:09.435Z,16.9
2023-04-23T17:40:00.141Z,16.8
2023-04-23T17:45:00.162Z,16.7
2023-04-23T17:50:00.142Z,16.4
2023-04-23T17:55:00.111Z,16.3
2023-04-23T18:00:00.149Z,16.1
2023-04-23T18:05:00.138Z,16.1
2023-04-23T18:10:00.145Z,15.9
2023-04-23T18:15:00.153Z,15.8
2023-04-23T18:20:00.165Z,15.8
2023-04-23T18:25:00.133Z,15.9
2023-04-23T18:30:00.124Z,15.7
2023-04-23T18:35:00.151Z,14.7
2023-04-23T18:40:00.101Z,13.5
2023-04-23T18:45:00.155Z,11.9
2023-04-23T18:50:00.142Z,11.6
2023-04-23T18:55:00.126Z,11.5
2023-04-23T19:00:00.133Z,11.4
2023-04-23T19:05:00.154Z,11.3
2023-04-23T19:10:00.133Z,11.3
2023-04-23T19:15:00.115Z,11.3
2023-04-23T19:20:00.154Z,11.3
2023-04-23T19:25:00.113Z,11.2
2023-04-23T19:30:00.153Z,11.2
2023-04-23T19:35:00.132Z,11.2
2023-04-23T19:40:00.141Z,11.3
2023-04-23T19:45:00.117Z,11.3
2023-04-23T19:50:00.119Z,11.2
2023-04-23T19:55:00.132Z,11.2
2023-04-23T20:00:00.122Z,11.1
2023-04-23T20:05:00.118Z,11.1
2023-04-23T20:10:00.135Z,11.1
2023-04-23T20:15:00.123Z,11.1
2023-04-23T20:20:00.105Z,10.8
2023-04-23T20:25:00.151Z,10.7
2023-04-23T20:30:00.123Z,10.5
2023-04-23T20:35:00.137Z,10.4
2023-04-23T20:40:00.168Z,10.4
2023-04-23T20:45:00.151Z,10.3
2023-04-23T20:50:00.114Z,10.3
2023-04-23T20:55:00.146Z,10.2
2023-04-23T21:00:00.109Z,10.2
2023-04-23T21:05:00.143Z,10.2
2023-04-23T21:10:00.130Z,10.1
2023-04-23T21:15:00.161Z,10.1
2023-04-23T21:20:00.116Z,10
2023-04-23T21:25:00.211Z,9.9
2023-04-23T21:30:00.179Z,9.9
2023-04-23T21:35:00.136Z,10
2023-04-23T21:40:00.167Z,10.1
2023-04-23T21:45:00.165Z,10.1
2023-04-23T21:50:00.140Z,10.2
2023-04-23T21:55:00.142Z,10.3
2023-04-23T22:00:00.159Z,10.3
2023-04-23T22:05:00.139Z,10.2
2023-04-23T22:10:00.221Z,10.2
2023-04-23T22:15:00.164Z,10.3
2023-04-23T22:20:00.140Z,10.3
2023-04-23T22:25:00.146Z,10.3
2023-04-23T22:30:00.128Z,10.2
2023-04-23T22:35:00.144Z,10.2
2023-04-23T22:40:00.196Z,10.2
2023-04-23T22:45:00.148Z,10.3
2023-04-23T22:50:00.154Z,10.2
2023-04-23T22:55:00.123Z,10.2
2023-04-23T23:00:00.140Z,10.2
2023-04-23T23:05:00.160Z,10.1
2023-04-23T23:10:00.123Z,10.1
2023-04-23T23:15:00.190Z,10.1
2023-04-23T23:20:00.186Z,10.1
2023-04-23T23:25:00.143Z,10.1
2023-04-23T23:30:00.118Z,10.2
2023-04-23T23:35:00.128Z,10.2
2023-04-23T23:40:00.203Z,10.2
2023-04-23T23:45:00.138Z,10.1
2023-04-23T23:50:00.168Z,10.1
2023-04-23T23:55:00.131Z,10.2
